sensor_id;sensor_type;location;lat;lon;timestamp;pressure;altitude;pressure_sealevel;temperature;humidity
11440;BME280;5776;51.814;4.510;2023-02-19T00:01:42;101895.59;;;9.19;100.00
11440;BME280;5776;51.814;4.510;2023-02-19T00:04:19;101902.34;;;9.16;100.00
11440;BME280;5776;51.814;4.510;2023-02-19T00:06:47;101893.88;;;9.13;100.00
11440;BME280;5776;51.814;4.510;2023-02-19T00:09:15;101897.44;;;9.13;100.00
11440;BME280;5776;51.814;4.510;2023-02-19T00:11:41;101904.47;;;9.14;100.00
11440;BME280;5776;51.814;4.510;2023-02-19T00:14:07;101908.56;;;9.17;100.00
11440;BME280;5776;51.814;4.510;2023-02-19T00:16:37;101906.94;;;9.16;100.00
11440;BME280;5776;51.814;4.510;2023-02-19T00:19:06;101909.38;;;9.17;100.00
11440;BME280;5776;51.814;4.510;2023-02-19T00:21:33;101902.34;;;9.16;100.00
11440;BME280;5776;51.814;4.510;2023-02-19T00:24:02;101896.34;;;9.14;100.00
11440;BME280;5776;51.814;4.510;2023-02-19T00:26:29;101902.59;;;9.15;100.00
11440;BME280;5776;51.814;4.510;2023-02-19T00:28:56;101901.19;;;9.12;100.00
11440;BME280;5776;51.814;4.510;2023-02-19T00:31:33;101906.63;;;9.12;100.00
11440;BME280;5776;51.814;4.510;2023-02-19T00:34:02;101896.84;;;9.11;100.00
11440;BME280;5776;51.814;4.510;2023-02-19T00:36:30;101903.66;;;9.14;100.00
11440;BME280;5776;51.814;4.510;2023-02-19T00:38:57;101908.00;;;9.15;100.00
11440;BME280;5776;51.814;4.510;2023-02-19T00:41:23;101916.94;;;9.15;100.00
11440;BME280;5776;51.814;4.510;2023-02-19T00:46:18;101918.03;;;9.14;100.00
11440;BME280;5776;51.814;4.510;2023-02-19T00:48:44;101909.91;;;9.14;100.00
11440;BME280;5776;51.814;4.510;2023-02-19T00:51:10;101916.94;;;9.15;100.00
11440;BME280;5776;51.814;4.510;2023-02-19T00:53:36;101918.84;;;9.15;100.00
11440;BME280;5776;51.814;4.510;2023-02-19T00:56:02;101928.63;;;9.16;100.00
11440;BME280;5776;51.814;4.510;2023-02-19T00:58:28;101929.97;;;9.13;100.00
11440;BME280;5776;51.814;4.510;2023-02-19T01:00:54;101934.28;;;9.14;100.00
11440;BME280;5776;51.814;4.510;2023-02-19T01:03:20;101935.38;;;9.13;100.00
11440;BME280;5776;51.814;4.510;2023-02-19T01:05:48;101937.00;;;9.14;100.00
11440;BME280;5776;51.814;4.510;2023-02-19T01:08:14;101931.00;;;9.12;100.00
11440;BME280;5776;51.814;4.510;2023-02-19T01:10:40;101939.13;;;9.12;100.00
11440;BME280;5776;51.814;4.510;2023-02-19T01:13:06;101931.81;;;9.13;100.00
11440;BME280;5776;51.814;4.510;2023-02-19T01:15:32;101936.44;;;9.12;100.00
11440;BME280;5776;51.814;4.510;2023-02-19T01:17:58;101940.22;;;9.11;100.00
11440;BME280;5776;51.814;4.510;2023-02-19T01:20:24;101937.50;;;9.11;100.00
11440;BME280;5776;51.814;4.510;2023-02-19T01:22:51;101939.41;;;9.11;100.00
11440;BME280;5776;51.814;4.510;2023-02-19T01:25:17;101945.66;;;9.11;100.00
11440;BME280;5776;51.814;4.510;2023-02-19T01:27:43;101943.75;;;9.12;100.00
11440;BME280;5776;51.814;4.510;2023-02-19T01:30:09;101941.03;;;9.12;100.00
11440;BME280;5776;51.814;4.510;2023-02-19T01:32:35;101946.22;;;9.13;100.00
11440;BME280;5776;51.814;4.510;2023-02-19T01:35:01;101941.03;;;9.12;100.00
11440;BME280;5776;51.814;4.510;2023-02-19T01:37:27;101945.38;;;9.13;100.00
11440;BME280;5776;51.814;4.510;2023-02-19T01:39:53;101933.72;;;9.12;100.00
11440;BME280;5776;51.814;4.510;2023-02-19T01:42:19;101944.56;;;9.12;100.00
11440;BME280;5776;51.814;4.510;2023-02-19T01:47:11;101941.84;;;9.12;100.00
11440;BME280;5776;51.814;4.510;2023-02-19T01:49:48;101939.41;;;9.11;100.00
11440;BME280;5776;51.814;4.510;2023-02-19T01:52:21;101949.16;;;9.12;100.00
11440;BME280;5776;51.814;4.510;2023-02-19T01:54:51;101944.81;;;9.11;100.00
11440;BME280;5776;51.814;4.510;2023-02-19T01:57:20;101947.53;;;9.11;100.00
11440;BME280;5776;51.814;4.510;2023-02-19T01:59:48;101947.78;;;9.09;100.00
11440;BME280;5776;51.814;4.510;2023-02-19T02:02:20;101946.69;;;9.10;100.00
11440;BME280;5776;51.814;4.510;2023-02-19T02:04:46;101956.72;;;9.09;100.00
11440;BME280;5776;51.814;4.510;2023-02-19T02:07:13;101949.41;;;9.10;100.00
11440;BME280;5776;51.814;4.510;2023-02-19T02:09:57;101956.72;;;9.09;100.00
11440;BME280;5776;51.814;4.510;2023-02-19T02:12:42;101954.00;;;9.09;100.00
11440;BME280;5776;51.814;4.510;2023-02-19T02:15:08;101962.97;;;9.10;100.00
11440;BME280;5776;51.814;4.510;2023-02-19T02:20:41;101951.31;;;9.09;100.00
11440;BME280;5776;51.814;4.510;2023-02-19T02:23:39;101957.53;;;9.10;100.00
11440;BME280;5776;51.814;4.510;2023-02-19T02:26:45;101956.47;;;9.11;100.00
11440;BME280;5776;51.814;4.510;2023-02-19T02:29:30;101955.91;;;9.09;100.00
11440;BME280;5776;51.814;4.510;2023-02-19T02:32:14;101962.97;;;9.10;100.00
11440;BME280;5776;51.814;4.510;2023-02-19T02:34:52;101962.16;;;9.09;100.00
11440;BME280;5776;51.814;4.510;2023-02-19T02:37:22;101964.63;;;9.11;100.00
11440;BME280;5776;51.814;4.510;2023-02-19T02:39:50;101966.25;;;9.12;100.00
11440;BME280;5776;51.814;4.510;2023-02-19T02:42:17;101964.63;;;9.11;100.00
11440;BME280;5776;51.814;4.510;2023-02-19T02:44:56;101968.13;;;9.12;100.00
11440;BME280;5776;51.814;4.510;2023-02-19T02:47:47;101971.94;;;9.11;100.00
11440;BME280;5776;51.814;4.510;2023-02-19T02:50:23;101971.09;;;9.10;100.00
11440;BME280;5776;51.814;4.510;2023-02-19T02:52:55;101975.47;;;9.11;100.00
11440;BME280;5776;51.814;4.510;2023-02-19T02:55:44;101972.97;;;9.09;100.00
11440;BME280;5776;51.814;4.510;2023-02-19T02:58:12;101983.81;;;9.09;100.00
11440;BME280;5776;51.814;4.510;2023-02-19T03:00:41;101981.94;;;9.10;100.00
11440;BME280;5776;51.814;4.510;2023-02-19T03:03:27;101985.47;;;9.11;100.00
11440;BME280;5776;51.814;4.510;2023-02-19T03:05:58;101973.78;;;9.10;100.00
11440;BME280;5776;51.814;4.510;2023-02-19T03:08:30;101975.97;;;9.08;100.00
11440;BME280;5776;51.814;4.510;2023-02-19T03:11:08;101988.44;;;9.09;100.00
11440;BME280;5776;51.814;4.510;2023-02-19T03:14:00;101980.31;;;9.09;100.00
11440;BME280;5776;51.814;4.510;2023-02-19T03:16:49;101983.00;;;9.09;100.00
11440;BME280;5776;51.814;4.510;2023-02-19T03:19:42;101972.97;;;9.09;100.00
11440;BME280;5776;51.814;4.510;2023-02-19T03:22:30;101988.44;;;9.09;100.00
11440;BME280;5776;51.814;4.510;2023-02-19T03:25:08;101987.34;;;9.10;100.00
11440;BME280;5776;51.814;4.510;2023-02-19T03:27:56;101989.00;;;9.11;100.00
11440;BME280;5776;51.814;4.510;2023-02-19T03:30:30;101988.19;;;9.11;100.00
11440;BME280;5776;51.814;4.510;2023-02-19T03:33:02;101990.06;;;9.10;100.00
11440;BME280;5776;51.814;4.510;2023-02-19T03:35:35;101995.47;;;9.10;100.00
11440;BME280;5776;51.814;4.510;2023-02-19T03:38:21;101999.03;;;9.11;100.00
11440;BME280;5776;51.814;4.510;2023-02-19T03:43:26;102004.13;;;9.07;100.00
11440;BME280;5776;51.814;4.510;2023-02-19T03:46:07;102006.81;;;9.07;100.00
11440;BME280;5776;51.814;4.510;2023-02-19T03:48:35;102014.94;;;9.07;100.00
11440;BME280;5776;51.814;4.510;2023-02-19T03:53:45;102018.75;;;9.06;100.00
11440;BME280;5776;51.814;4.510;2023-02-19T03:56:26;102021.47;;;9.06;100.00
11440;BME280;5776;51.814;4.510;2023-02-19T04:01:27;102030.63;;;9.05;100.00
11440;BME280;5776;51.814;4.510;2023-02-19T04:04:03;102026.06;;;9.05;100.00
11440;BME280;5776;51.814;4.510;2023-02-19T04:06:32;102029.81;;;9.04;100.00
11440;BME280;5776;51.814;4.510;2023-02-19T04:09:03;102029.00;;;9.04;100.00
11440;BME280;5776;51.814;4.510;2023-02-19T04:11:31;102034.19;;;9.05;100.00
11440;BME280;5776;51.814;4.510;2023-02-19T04:16:46;102036.06;;;9.05;100.00
11440;BME280;5776;51.814;4.510;2023-02-19T04:19:18;102036.06;;;9.05;100.00
11440;BME280;5776;51.814;4.510;2023-02-19T04:21:46;102043.38;;;9.04;100.00
11440;BME280;5776;51.814;4.510;2023-02-19T04:24:18;102045.28;;;9.04;100.00
11440;BME280;5776;51.814;4.510;2023-02-19T04:26:46;102051.78;;;9.03;100.00
11440;BME280;5776;51.814;4.510;2023-02-19T04:29:12;102055.03;;;9.05;100.00
11440;BME280;5776;51.814;4.510;2023-02-19T04:31:38;102054.22;;;9.04;100.00
11440;BME280;5776;51.814;4.510;2023-02-19T04:34:04;102053.63;;;9.02;100.00
11440;BME280;5776;51.814;4.510;2023-02-19T04:36:31;102056.34;;;9.02;100.00
11440;BME280;5776;51.814;4.510;2023-02-19T04:38:57;102066.38;;;9.02;100.00
11440;BME280;5776;51.814;4.510;2023-02-19T04:41:24;102069.09;;;9.02;100.00
11440;BME280;5776;51.814;4.510;2023-02-19T04:43:50;102071.22;;;9.00;100.00
11440;BME280;5776;51.814;4.510;2023-02-19T04:46:16;102079.34;;;9.00;100.00
11440;BME280;5776;51.814;4.510;2023-02-19T04:48:41;102083.94;;;8.99;100.00
11440;BME280;5776;51.814;4.510;2023-02-19T04:51:10;102088.53;;;8.99;100.00
11440;BME280;5776;51.814;4.510;2023-02-19T04:53:36;102091.25;;;8.99;100.00
11440;BME280;5776;51.814;4.510;2023-02-19T04:56:10;102099.63;;;8.97;100.00
11440;BME280;5776;51.814;4.510;2023-02-19T04:58:37;102103.72;;;9.00;100.00
11440;BME280;5776;51.814;4.510;2023-02-19T05:01:03;102092.31;;;8.98;100.00
11440;BME280;5776;51.814;4.510;2023-02-19T05:03:30;102101.28;;;8.98;100.00
11440;BME280;5776;51.814;4.510;2023-02-19T05:05:56;102111.28;;;8.98;100.00
11440;BME280;5776;51.814;4.510;2023-02-19T05:08:22;102115.88;;;8.97;100.00
11440;BME280;5776;51.814;4.510;2023-02-19T05:10:47;102114.00;;;8.98;100.00
11440;BME280;5776;51.814;4.510;2023-02-19T05:13:13;102132.97;;;8.98;100.00
11440;BME280;5776;51.814;4.510;2023-02-19T05:15:39;102127.53;;;8.98;100.00
11440;BME280;5776;51.814;4.510;2023-02-19T05:18:05;102135.66;;;8.98;100.00
11440;BME280;5776;51.814;4.510;2023-02-19T05:20:31;102130.25;;;8.98;100.00
11440;BME280;5776;51.814;4.510;2023-02-19T05:22:57;102138.63;;;8.96;100.00
11440;BME280;5776;51.814;4.510;2023-02-19T05:25:23;102148.66;;;8.96;100.00
11440;BME280;5776;51.814;4.510;2023-02-19T05:27:48;102144.88;;;8.97;100.00
11440;BME280;5776;51.814;4.510;2023-02-19T05:30:14;102143.78;;;8.98;100.00
11440;BME280;5776;51.814;4.510;2023-02-19T05:32:40;102150.28;;;8.97;100.00
11440;BME280;5776;51.814;4.510;2023-02-19T05:35:06;102155.94;;;8.95;100.00
11440;BME280;5776;51.814;4.510;2023-02-19T05:37:32;102157.59;;;8.96;100.00
11440;BME280;5776;51.814;4.510;2023-02-19T05:39:59;102161.13;;;8.97;100.00
11440;BME280;5776;51.814;4.510;2023-02-19T05:42:24;102158.41;;;8.97;100.00
11440;BME280;5776;51.814;4.510;2023-02-19T05:44:50;102155.72;;;8.97;100.00
11440;BME280;5776;51.814;4.510;2023-02-19T05:47:16;102149.72;;;8.95;100.00
11440;BME280;5776;51.814;4.510;2023-02-19T05:49:42;102150.53;;;8.95;100.00
11440;BME280;5776;51.814;4.510;2023-02-19T05:52:08;102147.00;;;8.95;100.00
11440;BME280;5776;51.814;4.510;2023-02-19T05:54:34;102158.66;;;8.95;100.00
11440;BME280;5776;51.814;4.510;2023-02-19T05:57:00;102155.13;;;8.95;100.00
11440;BME280;5776;51.814;4.510;2023-02-19T05:59:26;102158.66;;;8.95;100.00
11440;BME280;5776;51.814;4.510;2023-02-19T06:01:53;102160.56;;;8.95;100.00
11440;BME280;5776;51.814;4.510;2023-02-19T06:04:19;102165.97;;;8.95;100.00
11440;BME280;5776;51.814;4.510;2023-02-19T06:06:46;102175.75;;;8.96;100.00
11440;BME280;5776;51.814;4.510;2023-02-19T06:09:12;102165.38;;;8.93;100.00
11440;BME280;5776;51.814;4.510;2023-02-19T06:11:39;102170.00;;;8.92;100.00
11440;BME280;5776;51.814;4.510;2023-02-19T06:14:05;102173.78;;;8.91;100.00
11440;BME280;5776;51.814;4.510;2023-02-19T06:16:32;102172.69;;;8.92;100.00
11440;BME280;5776;51.814;4.510;2023-02-19T06:19:01;102177.31;;;8.92;100.00
11440;BME280;5776;51.814;4.510;2023-02-19T06:21:28;102177.78;;;8.89;100.00
11440;BME280;5776;51.814;4.510;2023-02-19T06:23:54;102186.50;;;8.91;100.00
11440;BME280;5776;51.814;4.510;2023-02-19T06:26:22;102190.25;;;8.90;100.00
11440;BME280;5776;51.814;4.510;2023-02-19T06:28:49;102190.25;;;8.90;100.00
11440;BME280;5776;51.814;4.510;2023-02-19T06:31:16;102204.31;;;8.86;100.00
11440;BME280;5776;51.814;4.510;2023-02-19T06:33:43;102203.22;;;8.87;100.00
11440;BME280;5776;51.814;4.510;2023-02-19T06:36:14;102208.66;;;8.87;100.00
11440;BME280;5776;51.814;4.510;2023-02-19T06:38:40;102209.50;;;8.88;100.00
11440;BME280;5776;51.814;4.510;2023-02-19T06:41:07;102206.19;;;8.86;100.00
11440;BME280;5776;51.814;4.510;2023-02-19T06:43:34;102209.72;;;8.86;100.00
11440;BME280;5776;51.814;4.510;2023-02-19T06:46:01;102215.16;;;8.86;100.00
11440;BME280;5776;51.814;4.510;2023-02-19T06:48:29;102210.81;;;8.85;100.00
11440;BME280;5776;51.814;4.510;2023-02-19T06:50:56;102212.44;;;8.86;100.00
11440;BME280;5776;51.814;4.510;2023-02-19T06:53:22;102217.03;;;8.86;100.00
11440;BME280;5776;51.814;4.510;2023-02-19T06:58:26;102216.44;;;8.84;100.00
11440;BME280;5776;51.814;4.510;2023-02-19T07:00:52;102221.63;;;8.85;100.00
11440;BME280;5776;51.814;4.510;2023-02-19T07:03:17;102222.69;;;8.84;100.00
11440;BME280;5776;51.814;4.510;2023-02-19T07:05:43;102222.69;;;8.84;100.00
11440;BME280;5776;51.814;4.510;2023-02-19T07:08:09;102223.75;;;8.83;100.00
11440;BME280;5776;51.814;4.510;2023-02-19T07:10:35;102235.19;;;8.85;100.00
11440;BME280;5776;51.814;4.510;2023-02-19T07:13:01;102239.19;;;8.83;100.00
11440;BME280;5776;51.814;4.510;2023-02-19T07:15:27;102242.72;;;8.83;100.00
11440;BME280;5776;51.814;4.510;2023-02-19T07:17:53;102250.84;;;8.83;100.00
11440;BME280;5776;51.814;4.510;2023-02-19T07:20:18;102256.28;;;8.83;100.00
11440;BME280;5776;51.814;4.510;2023-02-19T07:22:44;102247.34;;;8.83;100.00
11440;BME280;5776;51.814;4.510;2023-02-19T07:25:10;102261.69;;;8.83;100.00
11440;BME280;5776;51.814;4.510;2023-02-19T07:27:36;102262.75;;;8.82;100.00
11440;BME280;5776;51.814;4.510;2023-02-19T07:30:03;102275.25;;;8.83;100.00
11440;BME280;5776;51.814;4.510;2023-02-19T07:32:29;102280.88;;;8.82;100.00
11440;BME280;5776;51.814;4.510;2023-02-19T07:34:55;102287.13;;;8.82;100.00
11440;BME280;5776;51.814;4.510;2023-02-19T07:37:21;102282.56;;;8.83;100.00
11440;BME280;5776;51.814;4.510;2023-02-19T07:39:47;102292.81;;;8.81;100.00
11440;BME280;5776;51.814;4.510;2023-02-19T07:42:13;102303.38;;;8.82;100.00
11440;BME280;5776;51.814;4.510;2023-02-19T07:44:39;102308.22;;;8.80;100.00
11440;BME280;5776;51.814;4.510;2023-02-19T07:47:05;102316.09;;;8.82;100.00
11440;BME280;5776;51.814;4.510;2023-02-19T07:49:30;102315.88;;;8.83;100.00
11440;BME280;5776;51.814;4.510;2023-02-19T07:51:57;102318.00;;;8.81;100.00
11440;BME280;5776;51.814;4.510;2023-02-19T07:54:23;102328.03;;;8.81;100.00
11440;BME280;5776;51.814;4.510;2023-02-19T07:56:49;102341.31;;;8.82;100.00
11440;BME280;5776;51.814;4.510;2023-02-19T07:59:15;102341.31;;;8.82;100.00
11440;BME280;5776;51.814;4.510;2023-02-19T08:01:43;102346.72;;;8.82;100.00
11440;BME280;5776;51.814;4.510;2023-02-19T08:04:28;102347.56;;;8.83;100.00
11440;BME280;5776;51.814;4.510;2023-02-19T08:06:53;102345.31;;;8.80;100.00
11440;BME280;5776;51.814;4.510;2023-02-19T08:09:19;102362.97;;;8.82;100.00
11440;BME280;5776;51.814;4.510;2023-02-19T08:11:45;102356.75;;;8.82;100.00
11440;BME280;5776;51.814;4.510;2023-02-19T08:14:30;102358.63;;;8.81;100.00
11440;BME280;5776;51.814;4.510;2023-02-19T08:16:56;102372.19;;;8.81;100.00
11440;BME280;5776;51.814;4.510;2023-02-19T08:19:22;102372.19;;;8.81;100.00
11440;BME280;5776;51.814;4.510;2023-02-19T08:21:48;102374.66;;;8.83;100.00
11440;BME280;5776;51.814;4.510;2023-02-19T08:24:33;102370.06;;;8.83;100.00
11440;BME280;5776;51.814;4.510;2023-02-19T08:26:59;102378.19;;;8.83;100.00
11440;BME280;5776;51.814;4.510;2023-02-19T08:29:25;102373.00;;;8.82;100.00
11440;BME280;5776;51.814;4.510;2023-02-19T08:31:51;102367.56;;;8.82;100.00
11440;BME280;5776;51.814;4.510;2023-02-19T08:34:16;102370.28;;;8.82;100.00
11440;BME280;5776;51.814;4.510;2023-02-19T08:36:42;102369.47;;;8.81;100.00
11440;BME280;5776;51.814;4.510;2023-02-19T08:39:08;102358.63;;;8.81;100.00
11440;BME280;5776;51.814;4.510;2023-02-19T08:41:34;102368.41;;;8.82;100.00
11440;BME280;5776;51.814;4.510;2023-02-19T08:44:00;102381.38;;;8.80;100.00
11440;BME280;5776;51.814;4.510;2023-02-19T08:46:26;102371.38;;;8.81;100.00
11440;BME280;5776;51.814;4.510;2023-02-19T08:48:54;102373.00;;;8.82;100.00
11440;BME280;5776;51.814;4.510;2023-02-19T08:51:19;102377.38;;;8.83;100.00
11440;BME280;5776;51.814;4.510;2023-02-19T08:53:45;102380.31;;;8.81;100.00
11440;BME280;5776;51.814;4.510;2023-02-19T08:56:13;102398.19;;;8.82;100.00
11440;BME280;5776;51.814;4.510;2023-02-19T08:58:40;102383.84;;;8.82;100.00
11440;BME280;5776;51.814;4.510;2023-02-19T09:01:08;102394.69;;;8.82;100.00
11440;BME280;5776;51.814;4.510;2023-02-19T09:03:35;102393.38;;;8.84;100.00
11440;BME280;5776;51.814;4.510;2023-02-19T09:06:01;102393.84;;;8.81;100.00
11440;BME280;5776;51.814;4.510;2023-02-19T09:08:27;102385.72;;;8.81;100.00
11440;BME280;5776;51.814;4.510;2023-02-19T09:11:01;102373.81;;;8.82;100.00
11440;BME280;5776;51.814;4.510;2023-02-19T09:13:27;102375.72;;;8.82;100.00
11440;BME280;5776;51.814;4.510;2023-02-19T09:15:53;102380.91;;;8.83;100.00
11440;BME280;5776;51.814;4.510;2023-02-19T09:18:22;102389.84;;;8.84;100.00
11440;BME280;5776;51.814;4.510;2023-02-19T09:20:48;102398.19;;;8.82;100.00
11440;BME280;5776;51.814;4.510;2023-02-19T09:23:14;102399.88;;;8.83;100.00
11440;BME280;5776;51.814;4.510;2023-02-19T09:25:40;102408.59;;;8.85;100.00
11440;BME280;5776;51.814;4.510;2023-02-19T09:28:06;102413.41;;;8.83;100.00
11440;BME280;5776;51.814;4.510;2023-02-19T09:30:32;102419.88;;;8.82;100.00
11440;BME280;5776;51.814;4.510;2023-02-19T09:32:57;102428.00;;;8.82;100.00
11440;BME280;5776;51.814;4.510;2023-02-19T09:35:23;102434.28;;;8.83;100.00
11440;BME280;5776;51.814;4.510;2023-02-19T09:37:49;102439.22;;;8.86;100.00
11440;BME280;5776;51.814;4.510;2023-02-19T09:40:15;102442.13;;;8.84;100.00
11440;BME280;5776;51.814;4.510;2023-02-19T09:42:46;102443.81;;;8.85;100.00
11440;BME280;5776;51.814;4.510;2023-02-19T09:45:21;102454.66;;;8.85;100.00
11440;BME280;5776;51.814;4.510;2023-02-19T09:47:48;102458.19;;;8.86;100.00
11440;BME280;5776;51.814;4.510;2023-02-19T09:50:20;102446.50;;;8.85;100.00
11440;BME280;5776;51.814;4.510;2023-02-19T09:52:52;102450.88;;;8.86;100.00
11440;BME280;5776;51.814;4.510;2023-02-19T09:55:33;102447.06;;;8.87;100.00
11440;BME280;5776;51.814;4.510;2023-02-19T10:00:50;102492.09;;;8.89;100.00
11440;BME280;5776;51.814;4.510;2023-02-19T10:03:26;102487.97;;;8.86;100.00
11440;BME280;5776;51.814;4.510;2023-02-19T10:06:04;102485.38;;;8.91;100.00
11440;BME280;5776;51.814;4.510;2023-02-19T10:08:33;102484.56;;;8.91;100.00
11440;BME280;5776;51.814;4.510;2023-02-19T10:11:01;102483.50;;;8.92;100.00
11440;BME280;5776;51.814;4.510;2023-02-19T10:13:32;102482.69;;;8.91;100.00
11440;BME280;5776;51.814;4.510;2023-02-19T10:16:04;102494.91;;;8.94;100.00
11440;BME280;5776;51.814;4.510;2023-02-19T10:18:40;102494.91;;;8.94;100.00
11440;BME280;5776;51.814;4.510;2023-02-19T10:21:14;102487.84;;;8.93;100.00
11440;BME280;5776;51.814;4.510;2023-02-19T10:23:41;102501.97;;;8.95;100.00
11440;BME280;5776;51.814;4.510;2023-02-19T10:26:08;102505.75;;;8.94;100.00
11440;BME280;5776;51.814;4.510;2023-02-19T10:28:35;102506.59;;;8.94;100.00
11440;BME280;5776;51.814;4.510;2023-02-19T10:31:03;102512.00;;;8.94;100.00
11440;BME280;5776;51.814;4.510;2023-02-19T10:33:29;102513.63;;;8.95;100.00
11440;BME280;5776;51.814;4.510;2023-02-19T10:35:56;102520.94;;;8.95;100.00
11440;BME280;5776;51.814;4.510;2023-02-19T10:38:26;102525.31;;;8.96;100.00
11440;BME280;5776;51.814;4.510;2023-02-19T10:40:59;102523.44;;;8.96;100.00
11440;BME280;5776;51.814;4.510;2023-02-19T10:43:29;102529.66;;;8.97;100.00
11440;BME280;5776;51.814;4.510;2023-02-19T10:46:00;102526.97;;;8.97;100.00
11440;BME280;5776;51.814;4.510;2023-02-19T10:48:30;102526.97;;;8.97;100.00
11440;BME280;5776;51.814;4.510;2023-02-19T10:51:06;102533.19;;;8.97;100.00
11440;BME280;5776;51.814;4.510;2023-02-19T10:53:44;102534.03;;;8.98;100.00
11440;BME280;5776;51.814;4.510;2023-02-19T10:56:25;102539.44;;;8.98;100.00
11440;BME280;5776;51.814;4.510;2023-02-19T10:58:53;102538.63;;;8.97;100.00
11440;BME280;5776;51.814;4.510;2023-02-19T11:01:22;102540.50;;;8.97;100.00
11440;BME280;5776;51.814;4.510;2023-02-19T11:06:36;102539.69;;;8.96;100.00
11440;BME280;5776;51.814;4.510;2023-02-19T11:09:03;102545.94;;;8.97;100.00
11440;BME280;5776;51.814;4.510;2023-02-19T11:11:38;102540.50;;;8.97;100.00
11440;BME280;5776;51.814;4.510;2023-02-19T11:14:13;102551.56;;;8.95;100.00
11440;BME280;5776;51.814;4.510;2023-02-19T11:16:46;102547.81;;;8.96;100.00
11440;BME280;5776;51.814;4.510;2023-02-19T11:19:41;102551.81;;;8.94;100.00
11440;BME280;5776;51.814;4.510;2023-02-19T11:22:30;102540.72;;;8.95;100.00
11440;BME280;5776;51.814;4.510;2023-02-19T11:28:02;102532.88;;;8.94;100.00
11440;BME280;5776;51.814;4.510;2023-02-19T11:30:37;102534.75;;;8.93;100.00
11440;BME280;5776;51.814;4.510;2023-02-19T11:35:43;102527.19;;;8.95;100.00
11440;BME280;5776;51.814;4.510;2023-02-19T11:38:11;102530.75;;;8.96;100.00
11440;BME280;5776;51.814;4.510;2023-02-19T11:40:56;102522.34;;;8.97;100.00
11440;BME280;5776;51.814;4.510;2023-02-19T11:46:13;102534.63;;;9.00;100.00
11440;BME280;5776;51.814;4.510;2023-02-19T11:48:50;102536.16;;;8.96;100.00
11440;BME280;5776;51.814;4.510;2023-02-19T11:51:30;102541.22;;;9.04;100.00
11440;BME280;5776;51.814;4.510;2023-02-19T11:54:05;102534.88;;;8.98;100.00
11440;BME280;5776;51.814;4.510;2023-02-19T11:56:38;102541.59;;;8.96;100.00
11440;BME280;5776;51.814;4.510;2023-02-19T11:59:32;102531.66;;;8.90;100.00
11440;BME280;5776;51.814;4.510;2023-02-19T12:02:46;102523.53;;;8.90;100.00
11440;BME280;5776;51.814;4.510;2023-02-19T12:05:17;102518.38;;;8.88;100.00
11440;BME280;5776;51.814;4.510;2023-02-19T12:16:16;102539.69;;;8.84;100.00
11440;BME280;5776;51.814;4.510;2023-02-19T12:19:05;102534.50;;;8.83;100.00
11440;BME280;5776;51.814;4.510;2023-02-19T12:22:35;102539.34;;;8.81;100.00
11440;BME280;5776;51.814;4.510;2023-02-19T12:25:03;102545.34;;;8.83;100.00
11440;BME280;5776;51.814;4.510;2023-02-19T12:38:57;102538.63;;;8.85;100.00
11440;BME280;5776;51.814;4.510;2023-02-19T12:41:31;102545.69;;;8.86;100.00
11440;BME280;5776;51.814;4.510;2023-02-19T12:44:07;102550.88;;;8.88;100.00
11440;BME280;5776;51.814;4.510;2023-02-19T12:46:42;102564.19;;;8.90;100.00
11440;BME280;5776;51.814;4.510;2023-02-19T12:49:13;102553.59;;;8.88;100.00
11440;BME280;5776;51.814;4.510;2023-02-19T12:51:49;102550.03;;;8.87;100.00
11440;BME280;5776;51.814;4.510;2023-02-19T12:54:26;102557.13;;;8.89;100.00
11440;BME280;5776;51.814;4.510;2023-02-19T12:57:05;102570.19;;;8.92;100.00
11440;BME280;5776;51.814;4.510;2023-02-19T12:59:39;102568.78;;;8.89;100.00
11440;BME280;5776;51.814;4.510;2023-02-19T13:02:13;102585.03;;;8.89;100.00
11440;BME280;5776;51.814;4.510;2023-02-19T13:04:50;102586.34;;;8.86;100.00
11440;BME280;5776;51.814;4.510;2023-02-19T13:10:06;102607.19;;;8.86;100.00
11440;BME280;5776;51.814;4.510;2023-02-19T13:12:41;102607.78;;;8.88;100.00
11440;BME280;5776;51.814;4.510;2023-02-19T13:15:28;102614.03;;;8.89;100.00
11440;BME280;5776;51.814;4.510;2023-02-19T13:17:56;102606.94;;;8.87;100.00
11440;BME280;5776;51.814;4.510;2023-02-19T13:26:43;102617.66;;;8.82;100.00
11440;BME280;5776;51.814;4.510;2023-02-19T13:32:51;102614.59;;;8.79;100.00
11440;BME280;5776;51.814;4.510;2023-02-19T13:37:52;102616.38;;;8.73;100.00
11440;BME280;5776;51.814;4.510;2023-02-19T13:40:40;102629.91;;;8.73;100.00
11440;BME280;5776;51.814;4.510;2023-02-19T13:43:31;102649.69;;;8.74;100.00
11440;BME280;5776;51.814;4.510;2023-02-19T13:46:05;102637.91;;;8.68;100.00
11440;BME280;5776;51.814;4.510;2023-02-19T13:48:35;102641.44;;;8.69;100.00
11440;BME280;5776;51.814;4.510;2023-02-19T14:14:43;102650.16;;;8.82;100.00
11440;BME280;5776;51.814;4.510;2023-02-19T14:27:46;102660.41;;;8.69;100.00
11440;BME280;5776;51.814;4.510;2023-02-19T14:30:12;102663.94;;;8.69;100.00
11440;BME280;5776;51.814;4.510;2023-02-19T14:32:39;102666.03;;;8.67;100.00
11440;BME280;5776;51.814;4.510;2023-02-19T14:35:17;102665.91;;;8.62;100.00
11440;BME280;5776;51.814;4.510;2023-02-19T14:37:44;102674.03;;;8.62;100.00
11440;BME280;5776;51.814;4.510;2023-02-19T14:40:20;102675.69;;;8.63;100.00
11440;BME280;5776;51.814;4.510;2023-02-19T14:42:48;102671.09;;;8.63;100.00
11440;BME280;5776;51.814;4.510;2023-02-19T14:45:16;102665.44;;;8.65;100.00
11440;BME280;5776;51.814;4.510;2023-02-19T14:47:45;102665.69;;;8.63;100.00
11440;BME280;5776;51.814;4.510;2023-02-19T14:50:19;102668.75;;;8.67;100.00
11440;BME280;5776;51.814;4.510;2023-02-19T14:52:52;102663.09;;;8.69;100.00
11440;BME280;5776;51.814;4.510;2023-02-19T14:55:26;102651.88;;;8.65;100.00
11440;BME280;5776;51.814;4.510;2023-02-19T14:57:55;102654.59;;;8.65;100.00
11440;BME280;5776;51.814;4.510;2023-02-19T15:00:30;102652.59;;;8.60;100.00
11440;BME280;5776;51.814;4.510;2023-02-19T15:02:58;102656.47;;;8.53;100.00